CND5862 EFKT-EHAM
Flight info
| Callsign | CND5862 |
|---|---|
| Flight time | N/A |
| Altitude | 38000 |
| Route | AMULU DCT NEBET DCT ABALA DCT BEGDO DCT NITMU DCT ETIPU DCT DIBVA DCT INREX DCT IXUMA DCT LULIL DCT NEDZA DCT AMSEV DCT NUGLO DCT DOROR DCT BLUFA |
| Aircraft | B737/M-SDE2E3FGHIRWXY/LB1 |
Departure
| Time | 2026-04-23 02:00 |
|---|---|
| Airport | Kittilä International Airport (EFKT) |
Arrival
| Time | N/A |
|---|---|
| Airport | Amsterdam Airport Schiphol (EHAM) |
| Time | Latitude | Longitude | Altitude | Speed | Heading |
|---|---|---|---|---|---|
| 2026-04-23 01:36 | 67.69543 | 24.85687 | 640 ft | 0 kts | 126° |
| 2026-04-23 01:51 | 67.69546 | 24.85676 | 639 ft | 4 kts | 124° |
| 2026-04-23 01:51 | 67.69558 | 24.85614 | 638 ft | 4 kts | 103° |
| 2026-04-23 01:52 | 67.69562 | 24.85544 | 641 ft | 4 kts | 98° |
| 2026-04-23 01:52 | 67.69568 | 24.85495 | 639 ft | 2 kts | 164° |
| 2026-04-23 01:52 | 67.69574 | 24.85491 | 644 ft | 0 kts | 166° |
| 2026-04-23 01:56 | 67.69551 | 24.85485 | 641 ft | 6 kts | 212° |
| 2026-04-23 01:56 | 67.69520 | 24.85308 | 638 ft | 12 kts | 256° |
| 2026-04-23 01:57 | 67.69493 | 24.85102 | 642 ft | 12 kts | 221° |
| 2026-04-23 01:57 | 67.69414 | 24.85131 | 641 ft | 12 kts | 163° |
| 2026-04-23 01:57 | 67.69332 | 24.85194 | 643 ft | 16 kts | 164° |
| 2026-04-23 01:57 | 67.69185 | 24.85286 | 647 ft | 23 kts | 167° |
| 2026-04-23 01:58 | 67.69033 | 24.85362 | 653 ft | 16 kts | 181° |
| 2026-04-23 01:58 | 67.68985 | 24.85359 | 653 ft | 5 kts | 151° |
| 2026-04-23 01:58 | 67.68991 | 24.85433 | 653 ft | 5 kts | 23° |
| 2026-04-23 01:58 | 67.69023 | 24.85395 | 652 ft | 5 kts | 339° |
| 2026-04-23 01:59 | 67.69068 | 24.85358 | 651 ft | 14 kts | 344° |
| 2026-04-23 01:59 | 67.69437 | 24.85117 | 640 ft | 96 kts | 346° |
| 2026-04-23 01:59 | 67.70293 | 24.84536 | 700 ft | 153 kts | 344° |
| 2026-04-23 01:59 | 67.71435 | 24.83832 | 1168 ft | 177 kts | 346° |
| 2026-04-23 02:00 | 67.72669 | 24.83026 | 2053 ft | 188 kts | 343° |
| 2026-04-23 02:00 | 67.73880 | 24.81475 | 2873 ft | 203 kts | 323° |
| 2026-04-23 02:00 | 67.74673 | 24.77994 | 3277 ft | 247 kts | 285° |
| 2026-04-23 02:00 | 67.74338 | 24.73487 | 4453 ft | 264 kts | 246° |
| 2026-04-23 02:01 | 67.73014 | 24.69944 | 5368 ft | 283 kts | 213° |
| 2026-04-23 02:01 | 67.71227 | 24.67861 | 6600 ft | 276 kts | 204° |
| 2026-04-23 02:01 | 67.69474 | 24.65825 | 7587 ft | 278 kts | 210° |
| 2026-04-23 02:01 | 67.67715 | 24.63339 | 8187 ft | 295 kts | 210° |
| 2026-04-23 02:02 | 67.65771 | 24.61247 | 8935 ft | 306 kts | 201° |
| 2026-04-23 02:02 | 67.63745 | 24.59644 | 9995 ft | 305 kts | 199° |
| 2026-04-23 02:02 | 67.61679 | 24.58068 | 10699 ft | 315 kts | 200° |
| 2026-04-23 02:02 | 67.59550 | 24.56400 | 11167 ft | 333 kts | 201° |
| 2026-04-23 02:03 | 67.57242 | 24.54436 | 11469 ft | 357 kts | 202° |
| 2026-04-23 02:03 | 67.54868 | 24.52369 | 12018 ft | 369 kts | 202° |
| 2026-04-23 02:03 | 67.52408 | 24.50226 | 12803 ft | 376 kts | 202° |
| 2026-04-23 02:03 | 67.49912 | 24.48060 | 13664 ft | 381 kts | 203° |
| 2026-04-23 02:04 | 67.47371 | 24.45860 | 14411 ft | 387 kts | 203° |
| 2026-04-23 02:04 | 67.44795 | 24.43635 | 15166 ft | 393 kts | 204° |
| 2026-04-23 02:04 | 67.42175 | 24.41377 | 15939 ft | 399 kts | 204° |
| 2026-04-23 02:04 | 67.39519 | 24.39095 | 16712 ft | 405 kts | 204° |
| 2026-04-23 02:05 | 67.36961 | 24.36146 | 17423 ft | 399 kts | 222° |
| 2026-04-23 02:05 | 67.34737 | 24.31881 | 18178 ft | 399 kts | 226° |
| 2026-04-23 02:05 | 67.32516 | 24.27433 | 18825 ft | 406 kts | 226° |
| 2026-04-23 02:05 | 67.30268 | 24.22941 | 19529 ft | 410 kts | 226° |
| 2026-04-23 02:06 | 67.27986 | 24.18433 | 20234 ft | 415 kts | 226° |
| 2026-04-23 02:06 | 67.25675 | 24.13921 | 20919 ft | 420 kts | 226° |
| 2026-04-23 02:06 | 67.23322 | 24.09370 | 21590 ft | 425 kts | 226° |
| 2026-04-23 02:06 | 67.20934 | 24.04781 | 22243 ft | 430 kts | 226° |
| 2026-04-23 02:07 | 67.18545 | 24.00210 | 22892 ft | 435 kts | 226° |
| 2026-04-23 02:07 | 67.16103 | 23.95554 | 23539 ft | 439 kts | 226° |
| 2026-04-23 02:07 | 67.13635 | 23.90859 | 24085 ft | 443 kts | 226° |
| 2026-04-23 02:07 | 67.11144 | 23.86133 | 24647 ft | 447 kts | 226° |
| 2026-04-23 02:08 | 67.08630 | 23.81374 | 25178 ft | 449 kts | 225° |
| 2026-04-23 02:08 | 67.06107 | 23.76606 | 25765 ft | 452 kts | 225° |
| 2026-04-23 02:08 | 67.03564 | 23.71816 | 26310 ft | 455 kts | 226° |
| 2026-04-23 02:08 | 67.01020 | 23.66972 | 26814 ft | 458 kts | 226° |
| 2026-04-23 02:09 | 66.98463 | 23.62035 | 27314 ft | 461 kts | 226° |
| 2026-04-23 02:09 | 66.95900 | 23.57070 | 27811 ft | 465 kts | 226° |
| 2026-04-23 02:09 | 66.93315 | 23.52076 | 28304 ft | 468 kts | 226° |
| 2026-04-23 02:09 | 66.90700 | 23.47046 | 28783 ft | 472 kts | 226° |
| 2026-04-23 02:10 | 66.88068 | 23.42007 | 29264 ft | 475 kts | 226° |
| 2026-04-23 02:10 | 66.85419 | 23.36954 | 29710 ft | 478 kts | 226° |
| 2026-04-23 02:10 | 66.82749 | 23.31881 | 30139 ft | 481 kts | 226° |
| 2026-04-23 02:10 | 66.80056 | 23.26779 | 30476 ft | 483 kts | 226° |
| 2026-04-23 02:11 | 66.77355 | 23.21679 | 30886 ft | 484 kts | 225° |
| 2026-04-23 02:11 | 66.74672 | 23.16625 | 31241 ft | 487 kts | 225° |
| 2026-04-23 02:11 | 66.71951 | 23.11506 | 31566 ft | 490 kts | 225° |
| 2026-04-23 02:11 | 66.69211 | 23.06369 | 31939 ft | 490 kts | 225° |
| 2026-04-23 02:12 | 66.66522 | 23.01147 | 32404 ft | 483 kts | 230° |
| 2026-04-23 02:12 | 66.64164 | 22.95287 | 32890 ft | 468 kts | 241° |
| 2026-04-23 02:12 | 66.62151 | 22.88929 | 33347 ft | 463 kts | 243° |
| 2026-04-23 02:12 | 66.60176 | 22.82535 | 33741 ft | 462 kts | 243° |
| 2026-04-23 02:13 | 66.58200 | 22.76135 | 34105 ft | 463 kts | 243° |
| 2026-04-23 02:13 | 66.56212 | 22.69747 | 34447 ft | 462 kts | 242° |
| 2026-04-23 02:13 | 66.54220 | 22.63406 | 34727 ft | 462 kts | 242° |
| 2026-04-23 02:13 | 66.52240 | 22.57153 | 34992 ft | 463 kts | 241° |
| 2026-04-23 02:14 | 66.50230 | 22.50856 | 35320 ft | 460 kts | 241° |
| 2026-04-23 02:14 | 66.48235 | 22.44643 | 35761 ft | 457 kts | 241° |
| 2026-04-23 02:14 | 66.46241 | 22.38450 | 36046 ft | 457 kts | 241° |
| 2026-04-23 02:14 | 66.44239 | 22.32240 | 36255 ft | 458 kts | 241° |
| 2026-04-23 02:15 | 66.40232 | 22.19858 | 36830 ft | 457 kts | 240° |
| 2026-04-23 02:15 | 66.38224 | 22.13687 | 37149 ft | 456 kts | 240° |
| 2026-04-23 02:15 | 66.36225 | 22.07558 | 37410 ft | 456 kts | 240° |
| 2026-04-23 02:16 | 66.34220 | 22.01426 | 37649 ft | 456 kts | 240° |
| 2026-04-23 02:16 | 66.32214 | 21.95307 | 37908 ft | 456 kts | 239° |
| 2026-04-23 02:16 | 66.30208 | 21.89204 | 38069 ft | 458 kts | 239° |
| 2026-04-23 02:17 | 66.26144 | 21.76881 | 38057 ft | 461 kts | 239° |
| 2026-04-23 02:17 | 66.22104 | 21.64729 | 38036 ft | 456 kts | 239° |
| 2026-04-23 02:18 | 66.18076 | 21.52680 | 38069 ft | 453 kts | 239° |
| 2026-04-23 02:18 | 66.14062 | 21.40714 | 38059 ft | 452 kts | 239° |
| 2026-04-23 02:19 | 66.10039 | 21.28792 | 38071 ft | 451 kts | 239° |
| 2026-04-23 02:19 | 66.06017 | 21.16937 | 38067 ft | 450 kts | 239° |
| 2026-04-23 02:20 | 66.01989 | 21.05131 | 38041 ft | 450 kts | 238° |
| 2026-04-23 02:20 | 65.97957 | 20.93374 | 38075 ft | 450 kts | 238° |
| 2026-04-23 02:21 | 65.93936 | 20.81705 | 38076 ft | 451 kts | 238° |
| 2026-04-23 02:21 | 65.89845 | 20.70023 | 38081 ft | 455 kts | 235° |
| 2026-04-23 02:22 | 65.85287 | 20.59108 | 38081 ft | 460 kts | 231° |
| 2026-04-23 02:22 | 65.80614 | 20.48533 | 38080 ft | 460 kts | 231° |
| 2026-04-23 02:23 | 65.75928 | 20.37891 | 38078 ft | 460 kts | 231° |
| 2026-04-23 02:23 | 65.71260 | 20.27213 | 38084 ft | 461 kts | 231° |
| 2026-04-23 02:24 | 65.66591 | 20.16539 | 38078 ft | 461 kts | 231° |
| 2026-04-23 02:24 | 65.61916 | 20.05900 | 38088 ft | 461 kts | 231° |
| 2026-04-23 02:25 | 65.57227 | 19.95289 | 38059 ft | 462 kts | 231° |
| 2026-04-23 02:25 | 65.52539 | 19.84742 | 38086 ft | 461 kts | 231° |
| 2026-04-23 02:26 | 65.47830 | 19.74200 | 38105 ft | 461 kts | 231° |
| 2026-04-23 02:26 | 65.43120 | 19.63706 | 38076 ft | 462 kts | 231° |
| 2026-04-23 02:27 | 65.38390 | 19.53227 | 38055 ft | 462 kts | 231° |
| 2026-04-23 02:27 | 65.33671 | 19.42826 | 38092 ft | 461 kts | 231° |
| 2026-04-23 02:28 | 65.28977 | 19.32531 | 38110 ft | 460 kts | 231° |
| 2026-04-23 02:28 | 65.24220 | 19.22150 | 38117 ft | 460 kts | 231° |
| 2026-04-23 02:29 | 65.19516 | 19.11933 | 38115 ft | 461 kts | 230° |
| 2026-04-23 02:29 | 65.14771 | 19.01682 | 38116 ft | 461 kts | 230° |
| 2026-04-23 02:30 | 65.10013 | 18.91454 | 38119 ft | 461 kts | 230° |
| 2026-04-23 02:30 | 65.05245 | 18.81257 | 38080 ft | 461 kts | 230° |
| 2026-04-23 02:31 | 65.00472 | 18.71102 | 38106 ft | 461 kts | 230° |
| 2026-04-23 02:31 | 64.95682 | 18.60958 | 38132 ft | 462 kts | 230° |
| 2026-04-23 02:32 | 64.90883 | 18.50849 | 38123 ft | 463 kts | 230° |
| 2026-04-23 02:32 | 64.86100 | 18.40822 | 38117 ft | 464 kts | 230° |
| 2026-04-23 02:33 | 64.81269 | 18.30745 | 38129 ft | 464 kts | 230° |
| 2026-04-23 02:33 | 64.76434 | 18.20712 | 38117 ft | 464 kts | 230° |
| 2026-04-23 02:34 | 64.71587 | 18.10701 | 38127 ft | 464 kts | 229° |
| 2026-04-23 02:34 | 64.67551 | 18.02404 | 38106 ft | 464 kts | 229° |
| 2026-04-23 02:35 | 64.62697 | 17.92467 | 38120 ft | 464 kts | 229° |
| 2026-04-23 02:35 | 64.57051 | 17.80964 | 38126 ft | 464 kts | 229° |
| 2026-04-23 02:36 | 64.52947 | 17.72771 | 38104 ft | 465 kts | 227° |
| 2026-04-23 02:36 | 64.47831 | 17.63503 | 38125 ft | 467 kts | 225° |
| 2026-04-23 02:37 | 64.42675 | 17.54370 | 38133 ft | 466 kts | 225° |
| 2026-04-23 02:37 | 64.37535 | 17.45187 | 38139 ft | 466 kts | 226° |
| 2026-04-23 02:38 | 64.32446 | 17.36066 | 38133 ft | 466 kts | 226° |
| 2026-04-23 02:38 | 64.27320 | 17.26916 | 38102 ft | 466 kts | 226° |
| 2026-04-23 02:39 | 64.22183 | 17.17796 | 38143 ft | 466 kts | 225° |
| 2026-04-23 02:39 | 64.17043 | 17.08712 | 38146 ft | 466 kts | 225° |
| 2026-04-23 02:40 | 64.11894 | 16.99630 | 38152 ft | 466 kts | 226° |
| 2026-04-23 02:40 | 64.06827 | 16.90419 | 38152 ft | 465 kts | 227° |
| 2026-04-23 02:41 | 64.01768 | 16.81160 | 38143 ft | 466 kts | 226° |
| 2026-04-23 02:41 | 63.96695 | 16.71945 | 38148 ft | 465 kts | 226° |
| 2026-04-23 02:42 | 63.91648 | 16.62849 | 38145 ft | 466 kts | 226° |
| 2026-04-23 02:42 | 63.86564 | 16.53740 | 38151 ft | 465 kts | 226° |
| 2026-04-23 02:43 | 63.81476 | 16.44669 | 38152 ft | 465 kts | 226° |
| 2026-04-23 02:43 | 63.76381 | 16.35624 | 38143 ft | 465 kts | 226° |
| 2026-04-23 02:44 | 63.71321 | 16.26684 | 38160 ft | 465 kts | 226° |
| 2026-04-23 02:44 | 63.66218 | 16.17710 | 38160 ft | 464 kts | 226° |
| 2026-04-23 02:45 | 63.61116 | 16.08781 | 38155 ft | 464 kts | 225° |
| 2026-04-23 02:45 | 63.56018 | 15.99899 | 38167 ft | 464 kts | 225° |
| 2026-04-23 02:46 | 63.50908 | 15.91039 | 38170 ft | 464 kts | 225° |
| 2026-04-23 02:46 | 63.45796 | 15.82214 | 38153 ft | 463 kts | 225° |
| 2026-04-23 02:47 | 63.40720 | 15.73493 | 38164 ft | 463 kts | 225° |
| 2026-04-23 02:47 | 63.35605 | 15.64746 | 38174 ft | 463 kts | 225° |
| 2026-04-23 02:48 | 63.30483 | 15.56026 | 38179 ft | 463 kts | 225° |
| 2026-04-23 02:48 | 63.25350 | 15.47326 | 38178 ft | 464 kts | 225° |
| 2026-04-23 02:49 | 63.20204 | 15.38647 | 38147 ft | 464 kts | 225° |
| 2026-04-23 02:49 | 63.15088 | 15.30056 | 38175 ft | 465 kts | 225° |
| 2026-04-23 02:50 | 63.09924 | 15.21423 | 38159 ft | 465 kts | 224° |
| 2026-04-23 02:50 | 63.04762 | 15.12836 | 38176 ft | 464 kts | 224° |
| 2026-04-23 02:51 | 62.99601 | 15.04289 | 38188 ft | 464 kts | 224° |
| 2026-04-23 02:51 | 62.94442 | 14.95783 | 38175 ft | 463 kts | 224° |
| 2026-04-23 02:52 | 62.89280 | 14.87310 | 38186 ft | 462 kts | 224° |
| 2026-04-23 02:52 | 62.84128 | 14.78890 | 38195 ft | 462 kts | 223° |
| 2026-04-23 02:53 | 62.78964 | 14.70487 | 38200 ft | 462 kts | 223° |
| 2026-04-23 02:53 | 62.73787 | 14.62101 | 38197 ft | 462 kts | 223° |
| 2026-04-23 02:54 | 62.68609 | 14.53748 | 38199 ft | 463 kts | 223° |
| 2026-04-23 02:54 | 62.63470 | 14.45495 | 38192 ft | 462 kts | 223° |
| 2026-04-23 02:55 | 62.58186 | 14.37450 | 38207 ft | 464 kts | 220° |
| 2026-04-23 02:55 | 62.52795 | 14.29686 | 38208 ft | 465 kts | 219° |
| 2026-04-23 02:56 | 62.47411 | 14.21950 | 38216 ft | 465 kts | 220° |
| 2026-04-23 02:56 | 62.42035 | 14.14190 | 38222 ft | 465 kts | 220° |
| 2026-04-23 02:57 | 62.36661 | 14.06433 | 38221 ft | 465 kts | 220° |
| 2026-04-23 02:57 | 62.31280 | 13.98696 | 38225 ft | 465 kts | 219° |
| 2026-04-23 02:58 | 62.25933 | 13.91042 | 38237 ft | 465 kts | 219° |
| 2026-04-23 02:58 | 62.20544 | 13.83365 | 38235 ft | 465 kts | 219° |
| 2026-04-23 02:59 | 62.15150 | 13.75712 | 38240 ft | 466 kts | 219° |
| 2026-04-23 02:59 | 62.09742 | 13.68076 | 38226 ft | 465 kts | 219° |
| 2026-04-23 03:00 | 62.04342 | 13.60482 | 38241 ft | 465 kts | 219° |
| 2026-04-23 03:00 | 61.98927 | 13.52898 | 38246 ft | 465 kts | 218° |
| 2026-04-23 03:01 | 61.93515 | 13.45355 | 38250 ft | 465 kts | 218° |
| 2026-04-23 03:01 | 61.88101 | 13.37841 | 38244 ft | 465 kts | 218° |
| 2026-04-23 03:02 | 61.82690 | 13.30362 | 38247 ft | 464 kts | 218° |
| 2026-04-23 03:02 | 61.77313 | 13.22962 | 38254 ft | 464 kts | 218° |
| 2026-04-23 03:03 | 61.71902 | 13.15546 | 38262 ft | 463 kts | 218° |
| 2026-04-23 03:03 | 61.66488 | 13.08158 | 38272 ft | 463 kts | 218° |
| 2026-04-23 03:04 | 61.61067 | 13.00790 | 38264 ft | 463 kts | 218° |
| 2026-04-23 03:04 | 61.55654 | 12.93465 | 38260 ft | 462 kts | 217° |
| 2026-04-23 03:05 | 61.50275 | 12.86218 | 38262 ft | 462 kts | 217° |
| 2026-04-23 03:05 | 61.44872 | 12.78968 | 38278 ft | 461 kts | 217° |
| 2026-04-23 03:06 | 61.39476 | 12.71757 | 38267 ft | 460 kts | 217° |
| 2026-04-23 03:06 | 61.34084 | 12.64583 | 38268 ft | 458 kts | 217° |
| 2026-04-23 03:07 | 61.28718 | 12.57471 | 38282 ft | 456 kts | 216° |
| 2026-04-23 03:07 | 61.23364 | 12.50402 | 38281 ft | 455 kts | 216° |
| 2026-04-23 03:08 | 61.18019 | 12.43376 | 38279 ft | 454 kts | 216° |
| 2026-04-23 03:08 | 61.12681 | 12.36386 | 38249 ft | 453 kts | 216° |
| 2026-04-23 03:09 | 61.07345 | 12.29424 | 38269 ft | 453 kts | 216° |
| 2026-04-23 03:09 | 61.02009 | 12.22492 | 38287 ft | 453 kts | 216° |
| 2026-04-23 03:10 | 60.96612 | 12.15921 | 38299 ft | 454 kts | 213° |
| 2026-04-23 03:10 | 60.91083 | 12.09620 | 38304 ft | 454 kts | 213° |
| 2026-04-23 03:11 | 60.85569 | 12.03259 | 38305 ft | 454 kts | 213° |
| 2026-04-23 03:11 | 60.80065 | 11.96853 | 38304 ft | 455 kts | 213° |
| 2026-04-23 03:12 | 60.74600 | 11.90282 | 38303 ft | 456 kts | 213° |
| 2026-04-23 03:12 | 60.69157 | 11.83721 | 38306 ft | 458 kts | 213° |
| 2026-04-23 03:13 | 60.63643 | 11.77131 | 38312 ft | 460 kts | 213° |
| 2026-04-23 03:13 | 60.58102 | 11.70549 | 38300 ft | 462 kts | 213° |
| 2026-04-23 03:14 | 60.52539 | 11.63965 | 38282 ft | 463 kts | 212° |
| 2026-04-23 03:14 | 60.46906 | 11.57608 | 38295 ft | 464 kts | 210° |
| 2026-04-23 03:15 | 60.41163 | 11.51627 | 38290 ft | 464 kts | 209° |
| 2026-04-23 03:15 | 60.35430 | 11.45690 | 38286 ft | 462 kts | 209° |
| 2026-04-23 03:16 | 60.29721 | 11.39733 | 38287 ft | 461 kts | 210° |
| 2026-04-23 03:16 | 60.21261 | 11.30892 | 38282 ft | 456 kts | 209° |
| 2026-04-23 03:17 | 60.15637 | 11.25040 | 38287 ft | 453 kts | 209° |
| 2026-04-23 03:17 | 60.10052 | 11.19253 | 38261 ft | 450 kts | 209° |
| 2026-04-23 03:18 | 60.04492 | 11.13515 | 38270 ft | 448 kts | 209° |
| 2026-04-23 03:18 | 59.98957 | 11.07824 | 38269 ft | 446 kts | 209° |
| 2026-04-23 03:19 | 59.93447 | 11.02181 | 38281 ft | 444 kts | 209° |
| 2026-04-23 03:19 | 59.87955 | 10.96577 | 38287 ft | 443 kts | 208° |
| 2026-04-23 03:20 | 59.82505 | 10.91037 | 38292 ft | 442 kts | 208° |
| 2026-04-23 03:20 | 59.77023 | 10.85484 | 38290 ft | 442 kts | 208° |
| 2026-04-23 03:21 | 59.71539 | 10.79949 | 38289 ft | 442 kts | 208° |
| 2026-04-23 03:21 | 59.66050 | 10.74431 | 38287 ft | 443 kts | 208° |
| 2026-04-23 03:22 | 59.60546 | 10.68918 | 38281 ft | 443 kts | 208° |
| 2026-04-23 03:22 | 59.55963 | 10.64343 | 38279 ft | 444 kts | 208° |
| 2026-04-23 03:23 | 59.49541 | 10.57955 | 38274 ft | 445 kts | 208° |
| 2026-04-23 03:23 | 59.44002 | 10.52468 | 38269 ft | 446 kts | 208° |
| 2026-04-23 03:24 | 59.39387 | 10.47911 | 38273 ft | 446 kts | 208° |
| 2026-04-23 03:24 | 59.33825 | 10.42438 | 38276 ft | 447 kts | 208° |
| 2026-04-23 03:25 | 59.28257 | 10.36979 | 38383 ft | 447 kts | 208° |
| 2026-04-23 03:25 | 59.22682 | 10.31531 | 38354 ft | 447 kts | 207° |
| 2026-04-23 03:26 | 59.17104 | 10.26101 | 38255 ft | 447 kts | 207° |
| 2026-04-23 03:26 | 59.11606 | 10.20591 | 38269 ft | 447 kts | 208° |
| 2026-04-23 03:27 | 59.06110 | 10.14957 | 38292 ft | 447 kts | 208° |
| 2026-04-23 03:27 | 59.00603 | 10.09337 | 38291 ft | 447 kts | 208° |
| 2026-04-23 03:28 | 58.95094 | 10.03759 | 38290 ft | 447 kts | 208° |
| 2026-04-23 03:28 | 58.89582 | 9.98208 | 38293 ft | 446 kts | 208° |
| 2026-04-23 03:29 | 58.84068 | 9.92677 | 38290 ft | 446 kts | 208° |
| 2026-04-23 03:29 | 58.78552 | 9.87164 | 38290 ft | 446 kts | 207° |
| 2026-04-23 03:30 | 58.73036 | 9.81671 | 38291 ft | 446 kts | 207° |
| 2026-04-23 03:30 | 58.67513 | 9.76188 | 38294 ft | 446 kts | 207° |
| 2026-04-23 03:31 | 58.62030 | 9.70766 | 38290 ft | 446 kts | 207° |
| 2026-04-23 03:31 | 58.56512 | 9.65329 | 38291 ft | 446 kts | 207° |
| 2026-04-23 03:32 | 58.50991 | 9.59908 | 38290 ft | 446 kts | 207° |
| 2026-04-23 03:32 | 58.45474 | 9.54511 | 38291 ft | 445 kts | 207° |
| 2026-04-23 03:33 | 58.39954 | 9.49128 | 38293 ft | 445 kts | 207° |
| 2026-04-23 03:33 | 58.34433 | 9.43765 | 38294 ft | 445 kts | 207° |
| 2026-04-23 03:34 | 58.28904 | 9.38413 | 38294 ft | 445 kts | 207° |
| 2026-04-23 03:34 | 58.23380 | 9.33084 | 38294 ft | 445 kts | 207° |
| 2026-04-23 03:35 | 58.17856 | 9.27773 | 38292 ft | 445 kts | 207° |
| 2026-04-23 03:35 | 58.12367 | 9.22514 | 38294 ft | 444 kts | 206° |
| 2026-04-23 03:36 | 58.06855 | 9.17253 | 38282 ft | 442 kts | 206° |
| 2026-04-23 03:36 | 58.01364 | 9.12029 | 38282 ft | 440 kts | 206° |
| 2026-04-23 03:37 | 57.95903 | 9.06852 | 38287 ft | 438 kts | 206° |
| 2026-04-23 03:37 | 57.90495 | 9.01742 | 38287 ft | 436 kts | 206° |
| 2026-04-23 03:38 | 57.85074 | 8.96637 | 38289 ft | 435 kts | 205° |
| 2026-04-23 03:38 | 57.79653 | 8.91549 | 38291 ft | 434 kts | 205° |
| 2026-04-23 03:39 | 57.74253 | 8.86495 | 38291 ft | 433 kts | 205° |
| 2026-04-23 03:39 | 57.68888 | 8.81494 | 38292 ft | 433 kts | 205° |
| 2026-04-23 03:40 | 57.63289 | 8.77421 | 38298 ft | 431 kts | 196° |
| 2026-04-23 03:40 | 57.57545 | 8.74123 | 38294 ft | 432 kts | 195° |
| 2026-04-23 03:41 | 57.51793 | 8.70835 | 38291 ft | 432 kts | 195° |
| 2026-04-23 03:41 | 57.46044 | 8.67487 | 38292 ft | 433 kts | 195° |
| 2026-04-23 03:42 | 57.40278 | 8.64102 | 38289 ft | 434 kts | 195° |
| 2026-04-23 03:42 | 57.34508 | 8.60716 | 38301 ft | 435 kts | 195° |
| 2026-04-23 03:43 | 57.28755 | 8.57352 | 38288 ft | 436 kts | 195° |
| 2026-04-23 03:43 | 57.22959 | 8.53975 | 38289 ft | 437 kts | 195° |
| 2026-04-23 03:44 | 57.17162 | 8.50610 | 38291 ft | 437 kts | 195° |
| 2026-04-23 03:44 | 57.11365 | 8.47254 | 38290 ft | 437 kts | 195° |
| 2026-04-23 03:45 | 57.05557 | 8.43904 | 38291 ft | 437 kts | 194° |
| 2026-04-23 03:45 | 56.99785 | 8.40586 | 38291 ft | 437 kts | 194° |
| 2026-04-23 03:46 | 56.93987 | 8.37264 | 38293 ft | 437 kts | 194° |
| 2026-04-23 03:46 | 56.88179 | 8.33947 | 38297 ft | 436 kts | 194° |
| 2026-04-23 03:47 | 56.82386 | 8.30649 | 38299 ft | 436 kts | 194° |
| 2026-04-23 03:47 | 56.76586 | 8.27357 | 38300 ft | 436 kts | 194° |
| 2026-04-23 03:48 | 56.70801 | 8.24085 | 38303 ft | 435 kts | 194° |
| 2026-04-23 03:48 | 56.65016 | 8.20823 | 38304 ft | 435 kts | 194° |
| 2026-04-23 03:49 | 56.59231 | 8.17572 | 38304 ft | 434 kts | 194° |
| 2026-04-23 03:49 | 56.53494 | 8.14358 | 38307 ft | 434 kts | 194° |
| 2026-04-23 03:50 | 56.47725 | 8.11137 | 38307 ft | 434 kts | 194° |
| 2026-04-23 03:50 | 56.41948 | 8.07919 | 38318 ft | 433 kts | 194° |
| 2026-04-23 03:51 | 56.36189 | 8.04718 | 38314 ft | 432 kts | 193° |
| 2026-04-23 03:51 | 56.30433 | 8.01539 | 38327 ft | 431 kts | 193° |
| 2026-04-23 03:52 | 56.24706 | 7.98382 | 38321 ft | 430 kts | 193° |
| 2026-04-23 03:52 | 56.19020 | 7.95257 | 38324 ft | 429 kts | 193° |
| 2026-04-23 03:53 | 56.13319 | 7.92132 | 38329 ft | 428 kts | 193° |
| 2026-04-23 03:53 | 56.07630 | 7.89025 | 38331 ft | 427 kts | 193° |
| 2026-04-23 03:54 | 56.01951 | 7.85931 | 38340 ft | 426 kts | 193° |
| 2026-04-23 03:54 | 55.96274 | 7.82848 | 38332 ft | 426 kts | 193° |
| 2026-04-23 03:55 | 55.90609 | 7.79780 | 38333 ft | 425 kts | 193° |
| 2026-04-23 03:55 | 55.84989 | 7.76471 | 38337 ft | 427 kts | 197° |
| 2026-04-23 03:56 | 55.79520 | 7.72454 | 38339 ft | 428 kts | 199° |
| 2026-04-23 03:56 | 55.74032 | 7.68337 | 38345 ft | 428 kts | 198° |
| 2026-04-23 03:57 | 55.68525 | 7.64283 | 38345 ft | 428 kts | 198° |
| 2026-04-23 03:57 | 55.63010 | 7.60280 | 38351 ft | 428 kts | 198° |
| 2026-04-23 03:58 | 55.57526 | 7.56323 | 38351 ft | 428 kts | 198° |
| 2026-04-23 03:58 | 55.52007 | 7.52353 | 38363 ft | 429 kts | 198° |
| 2026-04-23 03:59 | 55.46473 | 7.48383 | 38358 ft | 429 kts | 198° |
| 2026-04-23 03:59 | 55.40939 | 7.44424 | 38360 ft | 429 kts | 198° |
| 2026-04-23 04:00 | 55.35401 | 7.40475 | 38360 ft | 429 kts | 198° |
| 2026-04-23 04:00 | 55.29903 | 7.36565 | 38382 ft | 429 kts | 198° |
| 2026-04-23 04:01 | 55.24371 | 7.32643 | 38378 ft | 429 kts | 198° |
| 2026-04-23 04:01 | 55.18837 | 7.28731 | 38366 ft | 428 kts | 198° |
| 2026-04-23 04:02 | 55.13299 | 7.24828 | 38379 ft | 428 kts | 198° |
| 2026-04-23 04:02 | 55.07784 | 7.20952 | 38372 ft | 427 kts | 198° |
| 2026-04-23 04:03 | 55.02269 | 7.17088 | 38395 ft | 426 kts | 197° |
| 2026-04-23 04:03 | 54.96704 | 7.13953 | 38399 ft | 420 kts | 189° |
| 2026-04-23 04:04 | 54.91006 | 7.11748 | 38390 ft | 419 kts | 188° |
| 2026-04-23 04:04 | 54.85312 | 7.09588 | 38381 ft | 419 kts | 188° |
| 2026-04-23 04:05 | 54.79626 | 7.07377 | 38406 ft | 418 kts | 188° |
| 2026-04-23 04:05 | 54.73946 | 7.05139 | 38396 ft | 418 kts | 188° |
| 2026-04-23 04:06 | 54.68275 | 7.02899 | 38397 ft | 418 kts | 188° |
| 2026-04-23 04:06 | 54.62601 | 7.00665 | 38403 ft | 417 kts | 188° |
| 2026-04-23 04:07 | 54.56941 | 6.98441 | 38398 ft | 417 kts | 188° |
| 2026-04-23 04:07 | 54.51285 | 6.96226 | 38403 ft | 417 kts | 188° |
| 2026-04-23 04:08 | 54.45624 | 6.94016 | 38402 ft | 416 kts | 188° |
| 2026-04-23 04:08 | 54.40006 | 6.91829 | 38404 ft | 416 kts | 188° |
| 2026-04-23 04:09 | 54.34355 | 6.89636 | 38412 ft | 416 kts | 188° |
| 2026-04-23 04:09 | 54.28706 | 6.87449 | 38430 ft | 416 kts | 188° |
| 2026-04-23 04:10 | 54.24001 | 6.85633 | 38419 ft | 416 kts | 188° |
| 2026-04-23 04:10 | 54.17430 | 6.83103 | 38414 ft | 416 kts | 188° |
| 2026-04-23 04:11 | 54.12695 | 6.81285 | 38419 ft | 416 kts | 188° |
| 2026-04-23 04:11 | 54.07079 | 6.79135 | 38418 ft | 416 kts | 188° |
| 2026-04-23 04:12 | 54.01418 | 6.76973 | 38429 ft | 417 kts | 188° |
| 2026-04-23 04:12 | 53.95755 | 6.74817 | 38428 ft | 417 kts | 188° |
| 2026-04-23 04:13 | 53.90071 | 6.72660 | 38070 ft | 422 kts | 188° |
| 2026-04-23 04:13 | 53.87209 | 6.71576 | 37587 ft | 420 kts | 187° |
| 2026-04-23 04:13 | 53.84359 | 6.70496 | 37069 ft | 418 kts | 187° |
| 2026-04-23 04:14 | 53.81529 | 6.69424 | 36593 ft | 415 kts | 187° |
| 2026-04-23 04:14 | 53.78763 | 6.68377 | 36203 ft | 410 kts | 187° |
| 2026-04-23 04:14 | 53.75990 | 6.67329 | 35761 ft | 407 kts | 187° |
| 2026-04-23 04:14 | 53.73239 | 6.66293 | 35340 ft | 403 kts | 187° |
| 2026-04-23 04:15 | 53.70506 | 6.65265 | 34927 ft | 400 kts | 186° |
| 2026-04-23 04:15 | 53.67801 | 6.64249 | 34520 ft | 397 kts | 186° |
| 2026-04-23 04:15 | 53.62437 | 6.62241 | 33599 ft | 391 kts | 186° |
| 2026-04-23 04:16 | 53.59792 | 6.61252 | 33186 ft | 388 kts | 186° |
| 2026-04-23 04:16 | 53.57165 | 6.60271 | 32777 ft | 385 kts | 186° |
| 2026-04-23 04:16 | 53.54559 | 6.59299 | 32394 ft | 382 kts | 186° |
| 2026-04-23 04:16 | 53.51975 | 6.58337 | 32001 ft | 379 kts | 186° |
| 2026-04-23 04:17 | 53.49411 | 6.57383 | 31616 ft | 376 kts | 186° |
| 2026-04-23 04:17 | 53.46859 | 6.56435 | 31223 ft | 374 kts | 186° |
| 2026-04-23 04:17 | 53.44329 | 6.55497 | 30842 ft | 371 kts | 186° |
| 2026-04-23 04:17 | 53.41808 | 6.54563 | 30457 ft | 369 kts | 186° |
| 2026-04-23 04:18 | 53.39305 | 6.53637 | 30012 ft | 367 kts | 186° |
| 2026-04-23 04:18 | 53.36825 | 6.52720 | 29596 ft | 363 kts | 187° |
| 2026-04-23 04:18 | 53.34402 | 6.51824 | 29188 ft | 359 kts | 187° |
| 2026-04-23 04:18 | 53.31939 | 6.50916 | 28787 ft | 356 kts | 187° |
| 2026-04-23 04:19 | 53.29560 | 6.50039 | 28373 ft | 353 kts | 187° |
| 2026-04-23 04:19 | 53.27173 | 6.49161 | 27970 ft | 350 kts | 187° |
| 2026-04-23 04:19 | 53.24798 | 6.48288 | 27577 ft | 348 kts | 187° |
| 2026-04-23 04:19 | 53.22444 | 6.47424 | 27184 ft | 345 kts | 187° |
| 2026-04-23 04:20 | 53.20108 | 6.46568 | 26790 ft | 342 kts | 187° |
| 2026-04-23 04:20 | 53.17790 | 6.45719 | 26402 ft | 340 kts | 188° |
| 2026-04-23 04:20 | 53.15484 | 6.44876 | 26012 ft | 338 kts | 188° |
| 2026-04-23 04:20 | 53.13195 | 6.44039 | 25633 ft | 336 kts | 188° |
| 2026-04-23 04:21 | 53.10914 | 6.43207 | 25248 ft | 334 kts | 188° |
| 2026-04-23 04:21 | 53.08650 | 6.42381 | 24867 ft | 333 kts | 188° |
| 2026-04-23 04:21 | 53.06391 | 6.41558 | 24488 ft | 331 kts | 189° |
| 2026-04-23 04:21 | 53.04143 | 6.40740 | 24081 ft | 331 kts | 189° |
| 2026-04-23 04:22 | 53.01898 | 6.39924 | 23632 ft | 329 kts | 189° |
| 2026-04-23 04:22 | 52.99668 | 6.39114 | 23201 ft | 327 kts | 189° |
| 2026-04-23 04:22 | 52.97449 | 6.38309 | 22787 ft | 325 kts | 189° |
| 2026-04-23 04:22 | 52.95248 | 6.37510 | 22395 ft | 323 kts | 190° |
| 2026-04-23 04:23 | 52.93059 | 6.36717 | 22004 ft | 320 kts | 190° |
| 2026-04-23 04:23 | 52.90892 | 6.35933 | 21618 ft | 318 kts | 190° |
| 2026-04-23 04:23 | 52.88756 | 6.35161 | 21244 ft | 316 kts | 190° |
| 2026-04-23 04:23 | 52.86615 | 6.34389 | 20869 ft | 314 kts | 191° |
| 2026-04-23 04:24 | 52.84512 | 6.33437 | 20474 ft | 314 kts | 205° |
| 2026-04-23 04:24 | 52.82768 | 6.31319 | 20227 ft | 310 kts | 227° |
| 2026-04-23 04:24 | 52.81438 | 6.28507 | 19915 ft | 311 kts | 233° |
| 2026-04-23 04:24 | 52.80195 | 6.25540 | 19561 ft | 317 kts | 235° |
| 2026-04-23 04:25 | 52.78949 | 6.22491 | 19189 ft | 324 kts | 236° |
| 2026-04-23 04:25 | 52.77678 | 6.19386 | 18783 ft | 327 kts | 235° |
| 2026-04-23 04:25 | 52.76399 | 6.16286 | 18317 ft | 326 kts | 235° |
| 2026-04-23 04:25 | 52.75121 | 6.13215 | 17899 ft | 324 kts | 235° |
| 2026-04-23 04:26 | 52.73843 | 6.10163 | 17488 ft | 321 kts | 235° |
| 2026-04-23 04:26 | 52.72590 | 6.07185 | 17095 ft | 319 kts | 235° |
| 2026-04-23 04:26 | 52.71312 | 6.04158 | 16693 ft | 316 kts | 235° |
| 2026-04-23 04:26 | 52.70073 | 6.01231 | 16299 ft | 315 kts | 236° |
| 2026-04-23 04:27 | 52.68819 | 5.98273 | 15917 ft | 313 kts | 236° |
| 2026-04-23 04:27 | 52.67568 | 5.95328 | 15528 ft | 312 kts | 236° |
| 2026-04-23 04:27 | 52.66325 | 5.92403 | 15143 ft | 311 kts | 236° |
| 2026-04-23 04:28 | 52.63839 | 5.86567 | 14351 ft | 311 kts | 236° |
| 2026-04-23 04:28 | 52.62599 | 5.83661 | 13934 ft | 310 kts | 236° |
| 2026-04-23 04:28 | 52.61357 | 5.80754 | 13513 ft | 309 kts | 236° |
| 2026-04-23 04:28 | 52.60122 | 5.77867 | 13112 ft | 308 kts | 236° |
| 2026-04-23 04:29 | 52.58891 | 5.74991 | 12712 ft | 306 kts | 236° |
| 2026-04-23 04:29 | 52.57665 | 5.72129 | 12320 ft | 305 kts | 236° |
| 2026-04-23 04:29 | 52.56443 | 5.69280 | 11919 ft | 304 kts | 236° |
| 2026-04-23 04:29 | 52.55230 | 5.66455 | 11549 ft | 302 kts | 236° |
| 2026-04-23 04:30 | 52.54037 | 5.63679 | 11172 ft | 300 kts | 236° |
| 2026-04-23 04:30 | 52.52832 | 5.60882 | 10811 ft | 299 kts | 237° |
| 2026-04-23 04:30 | 52.51634 | 5.58105 | 10516 ft | 294 kts | 237° |
| 2026-04-23 04:30 | 52.50439 | 5.55437 | 10311 ft | 288 kts | 233° |
| 2026-04-23 04:31 | 52.49181 | 5.52887 | 10082 ft | 287 kts | 232° |
| 2026-04-23 04:31 | 52.47904 | 5.50360 | 9856 ft | 288 kts | 232° |
| 2026-04-23 04:31 | 52.46622 | 5.47826 | 9631 ft | 288 kts | 232° |
| 2026-04-23 04:31 | 52.45343 | 5.45289 | 9397 ft | 287 kts | 232° |
| 2026-04-23 04:32 | 52.44075 | 5.42766 | 9179 ft | 286 kts | 232° |
| 2026-04-23 04:32 | 52.42829 | 5.40282 | 8964 ft | 285 kts | 232° |
| 2026-04-23 04:32 | 52.41553 | 5.37737 | 8729 ft | 284 kts | 232° |
| 2026-04-23 04:32 | 52.40319 | 5.35276 | 8531 ft | 283 kts | 232° |
| 2026-04-23 04:33 | 52.39071 | 5.32785 | 8315 ft | 282 kts | 232° |
| 2026-04-23 04:33 | 52.37825 | 5.30302 | 8097 ft | 282 kts | 232° |
| 2026-04-23 04:33 | 52.36580 | 5.27826 | 7881 ft | 281 kts | 232° |
| 2026-04-23 04:33 | 52.35341 | 5.25365 | 7665 ft | 280 kts | 232° |
| 2026-04-23 04:34 | 52.34106 | 5.22912 | 7453 ft | 279 kts | 231° |
| 2026-04-23 04:34 | 52.32873 | 5.20468 | 7237 ft | 278 kts | 231° |
| 2026-04-23 04:34 | 52.31642 | 5.18029 | 7030 ft | 277 kts | 231° |
| 2026-04-23 04:34 | 52.30419 | 5.15607 | 6805 ft | 276 kts | 231° |
| 2026-04-23 04:35 | 52.29200 | 5.13194 | 6583 ft | 275 kts | 231° |
| 2026-04-23 04:35 | 52.27985 | 5.10792 | 6368 ft | 273 kts | 231° |
| 2026-04-23 04:35 | 52.26792 | 5.08437 | 6157 ft | 271 kts | 231° |
| 2026-04-23 04:35 | 52.25606 | 5.06099 | 5941 ft | 264 kts | 231° |
| 2026-04-23 04:36 | 52.24394 | 5.03891 | 5724 ft | 258 kts | 220° |
| 2026-04-23 04:36 | 52.22904 | 5.02322 | 5551 ft | 250 kts | 210° |
| 2026-04-23 04:36 | 52.21407 | 5.00923 | 5468 ft | 247 kts | 210° |
| 2026-04-23 04:36 | 52.19930 | 4.99531 | 5448 ft | 241 kts | 210° |
| 2026-04-23 04:37 | 52.18521 | 4.98185 | 5431 ft | 227 kts | 210° |
| 2026-04-23 04:37 | 52.17198 | 4.96907 | 5430 ft | 216 kts | 210° |
| 2026-04-23 04:37 | 52.15924 | 4.95674 | 5442 ft | 217 kts | 210° |
| 2026-04-23 04:37 | 52.14615 | 4.94404 | 5456 ft | 221 kts | 210° |
| 2026-04-23 04:38 | 52.13277 | 4.93107 | 5457 ft | 225 kts | 210° |
| 2026-04-23 04:38 | 52.11958 | 4.91758 | 5444 ft | 224 kts | 220° |
| 2026-04-23 04:38 | 52.11151 | 4.89678 | 5446 ft | 218 kts | 259° |
| 2026-04-23 04:38 | 52.11009 | 4.87251 | 5447 ft | 215 kts | 271° |
| 2026-04-23 04:39 | 52.11012 | 4.84815 | 5453 ft | 217 kts | 272° |
| 2026-04-23 04:39 | 52.11042 | 4.82347 | 5454 ft | 220 kts | 278° |
| 2026-04-23 04:39 | 52.11597 | 4.80101 | 5443 ft | 213 kts | 315° |
| 2026-04-23 04:39 | 52.12761 | 4.78671 | 5456 ft | 210 kts | 335° |
| 2026-04-23 04:40 | 52.14069 | 4.77598 | 5458 ft | 211 kts | 336° |
| 2026-04-23 04:40 | 52.15405 | 4.76583 | 5450 ft | 212 kts | 345° |
| 2026-04-23 04:40 | 52.16843 | 4.76485 | 5470 ft | 207 kts | 7° |
| 2026-04-23 04:40 | 52.18286 | 4.76666 | 5457 ft | 208 kts | 6° |
| 2026-04-23 04:41 | 52.19729 | 4.76832 | 5461 ft | 206 kts | 6° |
| 2026-04-23 04:41 | 52.21154 | 4.76977 | 5443 ft | 203 kts | 5° |
| 2026-04-23 04:41 | 52.22532 | 4.77112 | 5444 ft | 200 kts | 5° |
| 2026-04-23 04:41 | 52.23918 | 4.77248 | 5454 ft | 199 kts | 5° |
| 2026-04-23 04:42 | 52.25303 | 4.77380 | 5453 ft | 199 kts | 5° |
| 2026-04-23 04:42 | 52.26685 | 4.77510 | 5459 ft | 199 kts | 5° |
| 2026-04-23 04:42 | 52.28073 | 4.77640 | 5458 ft | 200 kts | 5° |
| 2026-04-23 04:42 | 52.29465 | 4.77770 | 5457 ft | 201 kts | 5° |
| 2026-04-23 04:43 | 52.30873 | 4.77897 | 5464 ft | 204 kts | 5° |
| 2026-04-23 04:43 | 52.32289 | 4.78021 | 5461 ft | 203 kts | 5° |
| 2026-04-23 04:43 | 52.33693 | 4.78141 | 5449 ft | 202 kts | 5° |
| 2026-04-23 04:43 | 52.35091 | 4.78264 | 5452 ft | 201 kts | 5° |
| 2026-04-23 04:44 | 52.36471 | 4.78387 | 5459 ft | 201 kts | 5° |
| 2026-04-23 04:44 | 52.37893 | 4.78513 | 5456 ft | 201 kts | 5° |
| 2026-04-23 04:44 | 52.39271 | 4.78632 | 5458 ft | 201 kts | 5° |
| 2026-04-23 04:44 | 52.40676 | 4.78756 | 5456 ft | 201 kts | 5° |
| 2026-04-23 04:45 | 52.42079 | 4.78880 | 5453 ft | 202 kts | 5° |
| 2026-04-23 04:45 | 52.43482 | 4.79004 | 5457 ft | 202 kts | 5° |
| 2026-04-23 04:45 | 52.44886 | 4.79139 | 5462 ft | 202 kts | 5° |
| 2026-04-23 04:45 | 52.46290 | 4.79279 | 5451 ft | 202 kts | 5° |
| 2026-04-23 04:46 | 52.47698 | 4.79421 | 5455 ft | 203 kts | 5° |
| 2026-04-23 04:46 | 52.49106 | 4.79567 | 5455 ft | 203 kts | 5° |
| 2026-04-23 04:46 | 52.50515 | 4.79713 | 5452 ft | 203 kts | 5° |
| 2026-04-23 04:46 | 52.51925 | 4.79857 | 5454 ft | 203 kts | 5° |
| 2026-04-23 04:47 | 52.53337 | 4.80004 | 5451 ft | 203 kts | 5° |
| 2026-04-23 04:47 | 52.54749 | 4.80153 | 5449 ft | 203 kts | 5° |
| 2026-04-23 04:47 | 52.56155 | 4.80301 | 5453 ft | 202 kts | 5° |
| 2026-04-23 04:47 | 52.57560 | 4.80446 | 5454 ft | 202 kts | 5° |
| 2026-04-23 04:48 | 52.58963 | 4.80592 | 5448 ft | 202 kts | 5° |
| 2026-04-23 04:48 | 52.60363 | 4.80737 | 5453 ft | 202 kts | 5° |
| 2026-04-23 04:48 | 52.61769 | 4.80885 | 5459 ft | 201 kts | 5° |
| 2026-04-23 04:48 | 52.63152 | 4.81031 | 5458 ft | 202 kts | 5° |
| 2026-04-23 04:49 | 52.64556 | 4.81175 | 5452 ft | 202 kts | 5° |
| 2026-04-23 04:49 | 52.65959 | 4.81321 | 5443 ft | 202 kts | 5° |
| 2026-04-23 04:49 | 52.67360 | 4.81470 | 5455 ft | 202 kts | 5° |
| 2026-04-23 04:49 | 52.68757 | 4.81626 | 5453 ft | 201 kts | 5° |
| 2026-04-23 04:50 | 52.70155 | 4.81785 | 5460 ft | 201 kts | 5° |
| 2026-04-23 04:50 | 52.71554 | 4.81947 | 5452 ft | 201 kts | 5° |
| 2026-04-23 04:50 | 52.72950 | 4.82108 | 5451 ft | 201 kts | 5° |
| 2026-04-23 04:50 | 52.74346 | 4.82271 | 5457 ft | 201 kts | 5° |
| 2026-04-23 04:51 | 52.75740 | 4.82434 | 5453 ft | 201 kts | 5° |
| 2026-04-23 04:51 | 52.77134 | 4.82597 | 5452 ft | 201 kts | 5° |
| 2026-04-23 04:51 | 52.78526 | 4.82760 | 5454 ft | 200 kts | 5° |
| 2026-04-23 04:51 | 52.79915 | 4.82924 | 5451 ft | 200 kts | 5° |
| 2026-04-23 04:52 | 52.81304 | 4.83086 | 5457 ft | 200 kts | 5° |
| 2026-04-23 04:52 | 52.82674 | 4.83243 | 5457 ft | 200 kts | 5° |
| 2026-04-23 04:52 | 52.84063 | 4.83404 | 5458 ft | 200 kts | 5° |
| 2026-04-23 04:52 | 52.85455 | 4.83567 | 5456 ft | 201 kts | 5° |
| 2026-04-23 04:53 | 52.86850 | 4.83732 | 5461 ft | 201 kts | 5° |
| 2026-04-23 04:53 | 52.88244 | 4.83899 | 5450 ft | 201 kts | 5° |
| 2026-04-23 04:53 | 52.89639 | 4.84064 | 5460 ft | 201 kts | 5° |
| 2026-04-23 04:53 | 52.91038 | 4.84229 | 5447 ft | 202 kts | 5° |
| 2026-04-23 04:54 | 52.92437 | 4.84405 | 5459 ft | 201 kts | 5° |
| 2026-04-23 04:54 | 52.93833 | 4.84584 | 5455 ft | 201 kts | 5° |
| 2026-04-23 04:54 | 52.95229 | 4.84765 | 5460 ft | 201 kts | 5° |
| 2026-04-23 04:54 | 52.96623 | 4.84946 | 5451 ft | 201 kts | 5° |
| 2026-04-23 04:55 | 52.98015 | 4.85131 | 5446 ft | 201 kts | 5° |
| 2026-04-23 04:55 | 52.98937 | 4.85251 | 5456 ft | 200 kts | 5° |